Time;durP1;ratioP1;P1;durP2;ratioP2;P2;SDS_P1;SDS_P2;PMS_P1;PMS_P2;Temp;Humidity;BMP_temperature;BMP_pressure;BME280_temperature;BME280_humidity;BME280_pressure;Samples;Min_cycle;Max_cycle;Signal;HPM_P1;HPM_P2
2024/01/02 00:01:05;;;;;;;6.40;2.10;;;;;;;;;;5135623;27;20023;-67
2024/01/02 00:03:30;;;;;;;4.28;2.00;;;;;;;;;;5135059;27;20027;-67
2024/01/02 00:05:56;;;;;;;3.05;1.70;;;;;;;;;;5135447;27;20019;-67
2024/01/02 00:08:21;;;;;;;3.97;1.60;;;;;;;;;;5121896;27;20035;-67
2024/01/02 00:10:47;;;;;;;6.25;2.00;;;;;;;;;;5114880;28;20098;-67
2024/01/02 00:13:12;;;;;;;3.67;1.73;;;;;;;;;;5121716;27;20118;-67
2024/01/02 00:15:38;;;;;;;3.83;2.00;;;;;;;;;;5135229;27;20034;-67
2024/01/02 00:18:03;;;;;;;4.40;2.03;;;;;;;;;;5134269;27;20054;-67
2024/01/02 00:20:32;;;;;;;3.90;2.25;;;;;;;;;;5135187;27;20031;-67
2024/01/02 00:22:57;;;;;;;4.35;2.10;;;;;;;;;;5134781;27;20050;-67
2024/01/02 00:25:23;;;;;;;4.53;2.08;;;;;;;;;;5135176;27;20111;-66
2024/01/02 00:27:48;;;;;;;5.38;2.10;;;;;;;;;;5134806;27;20535;-67
2024/01/02 00:30:14;;;;;;;5.55;2.17;;;;;;;;;;5135097;27;20094;-67
2024/01/02 00:32:39;;;;;;;4.07;2.15;;;;;;;;;;5134473;27;20470;-66
2024/01/02 00:35:06;;;;;;;4.20;2.28;;;;;;;;;;5134917;27;20439;-67
2024/01/02 00:37:31;;;;;;;5.18;2.22;;;;;;;;;;5116260;27;20035;-66
2024/01/02 00:39:56;;;;;;;7.10;2.38;;;;;;;;;;5134781;27;20027;-66
2024/01/02 00:42:22;;;;;;;7.65;2.28;;;;;;;;;;5134614;27;20117;-66
2024/01/02 00:44:47;;;;;;;6.05;2.33;;;;;;;;;;5116389;27;20392;-67
2024/01/02 00:47:13;;;;;;;6.05;2.30;;;;;;;;;;5134235;27;20035;-67
2024/01/02 00:49:40;;;;;;;3.63;2.00;;;;;;;;;;5131275;27;20031;-66
2024/01/02 00:52:05;;;;;;;3.47;1.90;;;;;;;;;;5114455;28;20031;-67
2024/01/02 00:54:31;;;;;;;5.43;2.17;;;;;;;;;;5134379;27;20497;-66
2024/01/02 00:56:56;;;;;;;5.53;2.13;;;;;;;;;;5134487;27;20027;-67
2024/01/02 00:59:23;;;;;;;5.30;2.50;;;;;;;;;;5133946;27;20474;-66
2024/01/02 01:01:48;;;;;;;8.27;2.60;;;;;;;;;;5134260;27;20053;-67
2024/01/02 01:04:13;;;;;;;4.63;2.20;;;;;;;;;;5134056;27;20413;-67
2024/01/02 01:06:39;;;;;;;4.75;2.40;;;;;;;;;;5134379;27;20034;-67
2024/01/02 01:09:05;;;;;;;6.18;2.53;;;;;;;;;;5117910;27;20471;-66
2024/01/02 01:11:30;;;;;;;4.68;2.70;;;;;;;;;;5113682;28;20030;-66
2024/01/02 01:13:55;;;;;;;6.43;3.45;;;;;;;;;;5126705;27;20033;-67
2024/01/02 01:16:21;;;;;;;6.00;2.83;;;;;;;;;;5134020;27;20110;-67
2024/01/02 01:18:46;;;;;;;5.97;3.05;;;;;;;;;;5133965;27;20031;-67
2024/01/02 01:21:11;;;;;;;5.60;2.78;;;;;;;;;;5133977;27;20102;-67
2024/01/02 01:23:37;;;;;;;6.22;2.63;;;;;;;;;;5133620;27;20481;-66
2024/01/02 01:26:02;;;;;;;5.80;2.42;;;;;;;;;;5133894;27;20023;-67
2024/01/02 01:28:29;;;;;;;5.18;2.42;;;;;;;;;;5133653;27;20027;-66
2024/01/02 01:30:55;;;;;;;6.65;2.63;;;;;;;;;;5133606;27;20031;-66
2024/01/02 01:33:20;;;;;;;9.05;2.70;;;;;;;;;;5133453;27;20026;-66
2024/01/02 01:35:45;;;;;;;5.70;2.47;;;;;;;;;;5133807;27;20019;-67
2024/01/02 01:38:11;;;;;;;7.22;2.72;;;;;;;;;;5133535;27;20426;-66
2024/01/02 01:40:36;;;;;;;5.13;2.30;;;;;;;;;;5133654;27;20027;-67
2024/01/02 01:43:02;;;;;;;6.20;2.90;;;;;;;;;;5133283;27;20031;-67
2024/01/02 01:45:27;;;;;;;5.78;2.42;;;;;;;;;;5133179;27;20023;-67
2024/01/02 01:47:53;;;;;;;3.70;2.40;;;;;;;;;;5133490;27;20031;-66
2024/01/02 01:50:19;;;;;;;5.80;2.30;;;;;;;;;;5124766;27;20034;-66
2024/01/02 01:52:45;;;;;;;7.53;2.53;;;;;;;;;;5115364;27;20028;-66
2024/01/02 01:55:11;;;;;;;4.68;2.17;;;;;;;;;;5132826;27;20423;-67
2024/01/02 01:57:39;;;;;;;8.38;2.90;;;;;;;;;;5133129;27;20107;-67
2024/01/02 02:00:05;;;;;;;7.05;2.50;;;;;;;;;;5114920;27;20452;-67
2024/01/02 02:02:32;;;;;;;5.50;2.60;;;;;;;;;;5133458;27;20031;-66
2024/01/02 02:05:00;;;;;;;5.20;2.20;;;;;;;;;;5133037;27;20031;-67
2024/01/02 02:07:27;;;;;;;8.30;2.15;;;;;;;;;;5133369;27;20023;-67
2024/01/02 02:09:53;;;;;;;4.90;2.20;;;;;;;;;;5133116;27;20114;-66
2024/01/02 02:12:18;;;;;;;5.13;2.03;;;;;;;;;;5133291;28;20432;-66
2024/01/02 02:14:44;;;;;;;4.18;2.00;;;;;;;;;;5132841;28;20033;-67
2024/01/02 02:17:17;;;;;;;4.78;2.00;;;;;;;;;;5133110;28;20062;-66
2024/01/02 02:19:43;;;;;;;8.80;2.10;;;;;;;;;;5132904;28;20035;-66
2024/01/02 02:22:09;;;;;;;3.88;2.00;;;;;;;;;;5133245;28;20015;-66
2024/01/02 02:24:34;;;;;;;4.32;1.80;;;;;;;;;;5132978;27;20031;-67
2024/01/02 02:27:02;;;;;;;4.85;1.90;;;;;;;;;;5132978;27;20023;-67
2024/01/02 02:29:27;;;;;;;7.35;2.10;;;;;;;;;;5132531;28;20031;-67
2024/01/02 02:31:52;;;;;;;4.82;2.13;;;;;;;;;;5133257;28;20488;-66
2024/01/02 02:34:18;;;;;;;5.13;1.77;;;;;;;;;;5132891;28;20023;-66
2024/01/02 02:36:43;;;;;;;3.50;1.98;;;;;;;;;;5133188;28;20016;-66
2024/01/02 02:39:09;;;;;;;5.53;1.70;;;;;;;;;;5132674;27;20089;-66
2024/01/02 02:41:35;;;;;;;4.60;1.73;;;;;;;;;;5137010;27;20026;-66
2024/01/02 02:44:01;;;;;;;3.67;2.33;;;;;;;;;;5136556;27;20470;-67
2024/01/02 02:46:26;;;;;;;2.83;1.60;;;;;;;;;;5136982;27;20125;-67
2024/01/02 02:48:51;;;;;;;13.25;2.25;;;;;;;;;;5137006;27;20422;-67
2024/01/02 02:51:17;;;;;;;6.63;2.03;;;;;;;;;;5119661;27;20058;-67
2024/01/02 02:53:42;;;;;;;4.78;1.80;;;;;;;;;;5123159;27;20034;-67
2024/01/02 02:56:14;;;;;;;7.65;2.10;;;;;;;;;;5136886;27;20030;-66
2024/01/02 02:58:39;;;;;;;5.25;2.03;;;;;;;;;;5136384;27;20034;-66
2024/01/02 03:01:05;;;;;;;4.70;2.00;;;;;;;;;;5136794;27;20023;-66
2024/01/02 03:03:30;;;;;;;7.07;1.90;;;;;;;;;;5136549;27;20031;-66
2024/01/02 03:05:55;;;;;;;6.75;2.10;;;;;;;;;;5136609;27;20019;-67
2024/01/02 03:08:21;;;;;;;4.38;2.28;;;;;;;;;;5133563;27;20032;-67
2024/01/02 03:10:49;;;;;;;5.43;1.90;;;;;;;;;;5116062;28;20034;-66
2024/01/02 03:13:14;;;;;;;7.35;1.95;;;;;;;;;;5122797;27;20656;-67
2024/01/02 03:15:40;;;;;;;4.75;2.10;;;;;;;;;;5136445;27;20019;-67
2024/01/02 03:18:05;;;;;;;5.15;1.95;;;;;;;;;;5136204;27;20030;-67
2024/01/02 03:20:30;;;;;;;5.15;1.90;;;;;;;;;;5136354;27;20034;-67
2024/01/02 03:22:56;;;;;;;5.63;1.90;;;;;;;;;;5136366;27;20027;-67
2024/01/02 03:25:22;;;;;;;5.35;1.63;;;;;;;;;;5136065;27;20546;-66
2024/01/02 03:27:47;;;;;;;5.50;1.90;;;;;;;;;;5136105;27;20066;-66
2024/01/02 03:30:13;;;;;;;5.85;1.83;;;;;;;;;;5136028;27;20038;-66
2024/01/02 03:32:38;;;;;;;4.80;1.65;;;;;;;;;;5124985;27;20466;-66
2024/01/02 03:35:04;;;;;;;5.80;1.95;;;;;;;;;;5131879;27;20031;-66
2024/01/02 03:37:29;;;;;;;5.75;1.77;;;;;;;;;;5136133;27;20023;-66
2024/01/02 03:39:55;;;;;;;6.28;1.67;;;;;;;;;;5135711;27;20042;-67
2024/01/02 03:42:20;;;;;;;6.95;1.80;;;;;;;;;;5135763;27;20077;-67
2024/01/02 03:44:46;;;;;;;5.57;2.20;;;;;;;;;;5135463;27;20027;-66
2024/01/02 03:47:12;;;;;;;5.35;1.60;;;;;;;;;;5135751;27;20028;-66
2024/01/02 03:49:37;;;;;;;5.68;1.90;;;;;;;;;;5132599;27;20042;-67
2024/01/02 03:52:03;;;;;;;5.28;1.80;;;;;;;;;;5114154;28;20103;-66
2024/01/02 03:54:28;;;;;;;5.72;2.13;;;;;;;;;;5125244;27;20031;-67
2024/01/02 03:56:54;;;;;;;4.47;1.83;;;;;;;;;;5138098;27;20084;-67
2024/01/02 03:59:19;;;;;;;4.45;1.80;;;;;;;;;;5135159;27;20462;-66
2024/01/02 04:01:44;;;;;;;3.95;1.80;;;;;;;;;;5135651;27;20355;-66
2024/01/02 04:04:10;;;;;;;6.65;1.95;;;;;;;;;;5135077;27;20015;-66
2024/01/02 04:06:35;;;;;;;7.72;1.95;;;;;;;;;;5135558;27;20378;-66
2024/01/02 04:09:01;;;;;;;6.22;1.75;;;;;;;;;;5130149;27;20051;-67
2024/01/02 04:11:26;;;;;;;5.45;1.70;;;;;;;;;;5114548;28;20396;-66
2024/01/02 04:13:52;;;;;;;6.90;2.10;;;;;;;;;;5127325;27;20031;-67
2024/01/02 04:16:17;;;;;;;8.95;2.20;;;;;;;;;;5135314;27;20076;-67
2024/01/02 04:18:44;;;;;;;16.27;2.47;;;;;;;;;;5134961;27;20365;-66
2024/01/02 04:21:10;;;;;;;6.85;1.75;;;;;;;;;;5135027;27;20047;-67
2024/01/02 04:23:35;;;;;;;4.72;1.88;;;;;;;;;;5134703;27;20441;-66
2024/01/02 04:26:00;;;;;;;7.25;2.30;;;;;;;;;;5134829;27;20038;-67
2024/01/02 04:28:26;;;;;;;7.18;2.25;;;;;;;;;;5135217;27;20335;-66
2024/01/02 04:30:52;;;;;;;7.15;2.17;;;;;;;;;;5134834;27;20081;-67
2024/01/02 04:33:17;;;;;;;11.38;2.90;;;;;;;;;;5134838;27;20068;-67
2024/01/02 04:35:42;;;;;;;4.60;2.35;;;;;;;;;;5134701;27;20035;-67
2024/01/02 04:38:08;;;;;;;6.97;2.30;;;;;;;;;;5134971;27;20065;-66
2024/01/02 04:40:33;;;;;;;8.00;2.50;;;;;;;;;;5134381;27;20027;-66
2024/01/02 04:42:59;;;;;;;6.35;2.40;;;;;;;;;;5134766;27;20050;-66
2024/01/02 04:45:24;;;;;;;7.43;2.58;;;;;;;;;;5134350;27;20026;-66
2024/01/02 04:47:50;;;;;;;4.43;2.17;;;;;;;;;;5134553;27;20072;-66
2024/01/02 04:50:15;;;;;;;4.28;2.40;;;;;;;;;;5126159;27;20058;-66
2024/01/02 04:52:41;;;;;;;6.32;2.20;;;;;;;;;;5114073;28;20089;-67
2024/01/02 04:55:06;;;;;;;5.32;2.05;;;;;;;;;;5125121;27;20126;-66
2024/01/02 04:57:33;;;;;;;5.28;2.10;;;;;;;;;;5134409;27;20023;-66
2024/01/02 04:59:58;;;;;;;6.45;2.08;;;;;;;;;;5134133;27;20377;-66
2024/01/02 05:02:24;;;;;;;7.40;2.13;;;;;;;;;;5134209;27;20023;-66
2024/01/02 05:04:50;;;;;;;10.00;2.22;;;;;;;;;;5125233;27;20517;-66
2024/01/02 05:07:16;;;;;;;9.85;2.17;;;;;;;;;;5113716;28;20031;-66
2024/01/02 05:09:41;;;;;;;6.82;2.22;;;;;;;;;;5113178;28;20107;-66
2024/01/02 05:12:07;;;;;;;7.68;2.20;;;;;;;;;;5113742;28;20031;-66
2024/01/02 05:14:32;;;;;;;9.02;2.20;;;;;;;;;;5131857;27;20023;-66
2024/01/02 05:16:58;;;;;;;5.90;1.98;;;;;;;;;;5134091;27;20371;-66
2024/01/02 05:19:23;;;;;;;8.23;2.60;;;;;;;;;;5133704;27;20059;-67
2024/01/02 05:21:51;;;;;;;6.70;2.15;;;;;;;;;;5134024;27;20152;-66
2024/01/02 05:24:16;;;;;;;5.63;1.92;;;;;;;;;;5133533;27;20058;-66
2024/01/02 05:26:41;;;;;;;4.35;2.03;;;;;;;;;;5134039;27;20547;-66
2024/01/02 05:29:07;;;;;;;4.88;2.20;;;;;;;;;;5133456;27;20063;-67
2024/01/02 05:31:32;;;;;;;6.05;2.55;;;;;;;;;;5133745;27;20082;-66
2024/01/02 05:33:58;;;;;;;6.75;2.72;;;;;;;;;;5133814;27;20031;-66
2024/01/02 05:36:23;;;;;;;6.90;2.42;;;;;;;;;;5133694;27;20118;-68
2024/01/02 05:38:48;;;;;;;7.00;2.20;;;;;;;;;;5133337;27;20462;-66
2024/01/02 05:41:14;;;;;;;5.45;1.83;;;;;;;;;;5133106;27;20046;-66
2024/01/02 05:43:39;;;;;;;4.57;2.40;;;;;;;;;;5133564;27;20027;-67
2024/01/02 05:46:05;;;;;;;5.40;2.10;;;;;;;;;;5133388;27;20023;-67
2024/01/02 05:48:30;;;;;;;6.55;2.25;;;;;;;;;;5133637;27;20427;-67
2024/01/02 05:50:57;;;;;;;4.43;2.15;;;;;;;;;;5119416;27;20118;-66
2024/01/02 05:53:22;;;;;;;5.63;2.10;;;;;;;;;;5112704;28;20062;-66
2024/01/02 05:55:48;;;;;;;6.75;1.95;;;;;;;;;;5127266;27;20447;-66
2024/01/02 05:58:13;;;;;;;4.78;2.53;;;;;;;;;;5133341;27;20377;-67
2024/01/02 06:00:38;;;;;;;7.88;3.65;;;;;;;;;;5133177;27;20027;-66
2024/01/02 06:03:04;;;;;;;8.13;3.28;;;;;;;;;;5133154;27;20099;-66
2024/01/02 06:05:29;;;;;;;13.75;3.33;;;;;;;;;;5121932;27;20023;-67
2024/01/02 06:07:55;;;;;;;12.50;3.67;;;;;;;;;;5112621;28;20020;-67
2024/01/02 06:10:20;;;;;;;8.13;3.13;;;;;;;;;;5112790;28;20022;-66
2024/01/02 06:12:46;;;;;;;10.32;3.65;;;;;;;;;;5115756;28;20611;-67
2024/01/02 06:15:13;;;;;;;8.45;3.03;;;;;;;;;;5132435;27;20023;-67
2024/01/02 06:17:39;;;;;;;5.60;3.10;;;;;;;;;;5133019;28;20026;-66
2024/01/02 06:20:06;;;;;;;13.23;3.70;;;;;;;;;;5132797;28;20023;-67
2024/01/02 06:22:31;;;;;;;8.63;3.25;;;;;;;;;;5132945;28;20063;-66
2024/01/02 06:24:56;;;;;;;9.73;4.10;;;;;;;;;;5132802;28;20062;-67
2024/01/02 06:27:22;;;;;;;8.57;3.10;;;;;;;;;;5132920;27;20152;-67
2024/01/02 06:29:48;;;;;;;8.50;2.97;;;;;;;;;;5132864;27;20027;-67
2024/01/02 06:32:13;;;;;;;12.95;3.58;;;;;;;;;;5132556;28;20118;-66
2024/01/02 06:34:39;;;;;;;6.07;2.50;;;;;;;;;;5132900;28;20459;-67
2024/01/02 06:37:04;;;;;;;7.75;4.25;;;;;;;;;;5132737;28;20024;-67
2024/01/02 06:39:30;;;;;;;7.35;2.90;;;;;;;;;;5132586;28;20045;-67
2024/01/02 06:41:56;;;;;;;8.82;2.55;;;;;;;;;;5132931;27;20027;-67
2024/01/02 06:44:21;;;;;;;9.70;3.03;;;;;;;;;;5132971;28;20113;-66
2024/01/02 06:46:47;;;;;;;7.20;2.70;;;;;;;;;;5132572;28;20096;-67
2024/01/02 06:49:12;;;;;;;5.72;3.08;;;;;;;;;;5132929;28;20031;-67
2024/01/02 06:51:37;;;;;;;11.40;3.03;;;;;;;;;;5130723;27;20042;-67
2024/01/02 06:54:03;;;;;;;9.77;3.60;;;;;;;;;;5132652;27;20035;-66
2024/01/02 06:56:28;;;;;;;9.98;3.30;;;;;;;;;;5132604;28;20027;-67
2024/01/02 06:58:54;;;;;;;8.98;3.50;;;;;;;;;;5132662;28;20028;-66
2024/01/02 07:01:20;;;;;;;9.63;3.30;;;;;;;;;;5132518;28;20035;-67
2024/01/02 07:03:45;;;;;;;6.47;3.30;;;;;;;;;;5132550;27;20023;-67
2024/01/02 07:06:10;;;;;;;7.25;3.65;;;;;;;;;;5118835;28;20038;-66
2024/01/02 07:08:36;;;;;;;8.38;3.00;;;;;;;;;;5112110;28;20035;-67
2024/01/02 07:11:01;;;;;;;10.48;4.43;;;;;;;;;;5112478;28;20023;-67
2024/01/02 07:13:27;;;;;;;5.18;2.58;;;;;;;;;;5121032;28;20031;-66
2024/01/02 07:15:52;;;;;;;10.38;4.00;;;;;;;;;;5132543;28;20030;-68
2024/01/02 07:18:18;;;;;;;10.27;3.83;;;;;;;;;;5132556;27;20106;-68
2024/01/02 07:20:43;;;;;;;5.80;2.63;;;;;;;;;;5132178;27;20126;-67
2024/01/02 07:23:09;;;;;;;7.38;3.00;;;;;;;;;;5132591;28;20035;-67
2024/01/02 07:25:34;;;;;;;7.18;3.03;;;;;;;;;;5132829;27;20038;-67
2024/01/02 07:27:59;;;;;;;11.18;4.60;;;;;;;;;;5135692;27;20493;-68
2024/01/02 07:30:25;;;;;;;7.30;3.15;;;;;;;;;;5135983;27;20026;-67
2024/01/02 07:32:50;;;;;;;6.28;2.35;;;;;;;;;;5135931;27;20054;-67
2024/01/02 07:35:15;;;;;;;7.38;3.42;;;;;;;;;;5135755;27;20031;-67
2024/01/02 07:37:41;;;;;;;9.80;3.40;;;;;;;;;;5135918;27;20462;-67
2024/01/02 07:40:07;;;;;;;8.32;3.17;;;;;;;;;;5135743;27;20027;-68
2024/01/02 07:42:33;;;;;;;6.50;3.28;;;;;;;;;;5136077;27;20462;-66
2024/01/02 07:44:58;;;;;;;5.10;2.95;;;;;;;;;;5135806;27;20102;-68
2024/01/02 07:47:25;;;;;;;5.72;2.50;;;;;;;;;;5135304;27;20034;-68
2024/01/02 07:49:51;;;;;;;8.80;3.17;;;;;;;;;;5112569;28;20016;-68
2024/01/02 07:52:16;;;;;;;8.68;2.60;;;;;;;;;;5135505;27;20027;-68
2024/01/02 07:54:42;;;;;;;9.07;2.40;;;;;;;;;;5135583;27;20039;-68
2024/01/02 07:57:07;;;;;;;6.20;3.00;;;;;;;;;;5135460;27;20039;-67
2024/01/02 07:59:33;;;;;;;13.35;7.00;;;;;;;;;;5135465;27;20031;-68
2024/01/02 08:01:58;;;;;;;10.20;3.72;;;;;;;;;;5132075;27;21473;-68
2024/01/02 08:04:24;;;;;;;7.55;2.95;;;;;;;;;;5121566;27;20540;-67
2024/01/02 08:06:50;;;;;;;10.27;3.50;;;;;;;;;;5119887;27;20486;-67
2024/01/02 08:09:15;;;;;;;8.43;2.53;;;;;;;;;;5114957;28;20063;-67
2024/01/02 08:11:41;;;;;;;11.93;3.70;;;;;;;;;;5114906;27;20054;-68
2024/01/02 08:14:06;;;;;;;9.60;3.58;;;;;;;;;;5129350;27;20031;-68
2024/01/02 08:16:32;;;;;;;12.13;4.43;;;;;;;;;;5135124;27;20027;-67
2024/01/02 08:18:58;;;;;;;14.18;4.65;;;;;;;;;;5135106;27;20031;-68
2024/01/02 08:21:24;;;;;;;13.18;3.95;;;;;;;;;;5134960;27;20542;-68
2024/01/02 08:23:49;;;;;;;10.90;3.53;;;;;;;;;;5134843;27;20027;-68
2024/01/02 08:26:14;;;;;;;8.55;3.55;;;;;;;;;;5134859;27;20056;-68
2024/01/02 08:28:40;;;;;;;10.45;2.97;;;;;;;;;;5135187;27;20023;-67
2024/01/02 08:31:06;;;;;;;7.85;3.08;;;;;;;;;;5134429;27;20363;-67
2024/01/02 08:33:31;;;;;;;7.93;1.40;;;;;;;;;;5135000;27;20019;-68
2024/01/02 08:35:57;;;;;;;13.00;3.55;;;;;;;;;;5134804;27;20022;-67
2024/01/02 08:38:22;;;;;;;4.10;2.60;;;;;;;;;;5134142;27;20033;-67
2024/01/02 08:40:49;;;;;;;8.23;3.28;;;;;;;;;;5134551;27;20019;-68
2024/01/02 08:43:16;;;;;;;6.55;3.00;;;;;;;;;;5134688;27;20019;-68
2024/01/02 08:45:41;;;;;;;5.40;2.53;;;;;;;;;;5127446;27;20489;-68
2024/01/02 08:48:11;;;;;;;8.60;2.83;;;;;;;;;;5134631;27;20060;-68
2024/01/02 08:50:37;;;;;;;5.05;2.17;;;;;;;;;;5125891;27;20032;-67
2024/01/02 08:53:03;;;;;;;5.05;2.20;;;;;;;;;;5134667;27;20500;-68
2024/01/02 08:55:28;;;;;;;6.55;2.92;;;;;;;;;;5134154;27;20035;-68
2024/01/02 08:57:54;;;;;;;9.88;3.72;;;;;;;;;;5134566;27;20027;-67
2024/01/02 09:00:20;;;;;;;4.22;1.73;;;;;;;;;;5113795;28;20048;-68
2024/01/02 09:02:45;;;;;;;9.10;3.33;;;;;;;;;;5134264;27;20019;-66
2024/01/02 09:05:11;;;;;;;9.05;4.20;;;;;;;;;;5115766;27;20068;-68
2024/01/02 09:07:36;;;;;;;13.80;4.30;;;;;;;;;;5115382;27;20507;-68
2024/01/02 09:10:03;;;;;;;6.82;3.30;;;;;;;;;;5113779;28;20099;-68
2024/01/02 09:12:28;;;;;;;11.35;2.58;;;;;;;;;;5114386;27;20059;-68
2024/01/02 09:14:54;;;;;;;9.80;2.38;;;;;;;;;;5134083;27;20065;-68
2024/01/02 09:17:19;;;;;;;10.05;3.13;;;;;;;;;;5133944;27;20060;-68
2024/01/02 09:19:46;;;;;;;9.93;3.70;;;;;;;;;;5133821;27;20027;-68
2024/01/02 09:22:11;;;;;;;9.95;3.08;;;;;;;;;;5133646;27;20098;-68
2024/01/02 09:24:38;;;;;;;7.13;3.58;;;;;;;;;;5133697;27;20058;-68
2024/01/02 09:27:05;;;;;;;14.35;4.40;;;;;;;;;;5133617;27;20023;-68
2024/01/02 09:29:31;;;;;;;9.77;3.55;;;;;;;;;;5133353;27;20477;-68
2024/01/02 09:31:57;;;;;;;12.65;4.45;;;;;;;;;;5133873;27;20024;-68
2024/01/02 09:34:23;;;;;;;13.07;4.88;;;;;;;;;;5133638;27;20039;-69
2024/01/02 09:36:51;;;;;;;11.80;4.72;;;;;;;;;;5133990;27;20108;-69
2024/01/02 09:39:16;;;;;;;14.32;3.72;;;;;;;;;;5133354;27;20027;-68
2024/01/02 09:42:15;;;;;;;8.57;3.95;;;;;;;;;;5133646;27;20023;-68
2024/01/02 09:45:24;;;;;;;8.63;2.95;;;;;;;;;;5133295;27;20422;-68
2024/01/02 09:48:03;;;;;;;13.85;3.95;;;;;;;;;;5119724;27;20039;-68
2024/01/02 09:50:34;;;;;;;8.65;3.17;;;;;;;;;;5122230;27;20382;-68
2024/01/02 09:53:24;;;;;;;7.90;2.65;;;;;;;;;;5113042;28;20119;-68
2024/01/02 09:56:04;;;;;;;16.40;4.47;;;;;;;;;;5127994;27;20051;-68
2024/01/02 09:58:39;;;;;;;10.13;2.90;;;;;;;;;;5133087;27;20027;-67
2024/01/02 10:01:47;;;;;;;8.45;3.47;;;;;;;;;;5133139;27;20076;-68
2024/01/02 10:04:32;;;;;;;8.00;2.85;;;;;;;;;;5132558;27;20363;-69
2024/01/02 10:07:33;;;;;;;11.73;4.40;;;;;;;;;;5112931;28;20031;-69
2024/01/02 10:10:12;;;;;;;18.70;4.30;;;;;;;;;;5112945;28;20035;-69
2024/01/02 10:12:43;;;;;;;16.02;4.22;;;;;;;;;;5114667;28;20024;-68
2024/01/02 10:15:30;;;;;;;9.13;2.60;;;;;;;;;;5133175;27;20022;-68
2024/01/02 10:18:22;;;;;;;7.28;2.20;;;;;;;;;;5133205;28;20052;-69
2024/01/02 10:21:15;;;;;;;12.85;3.33;;;;;;;;;;5132859;27;20073;-69
2024/01/02 10:24:02;;;;;;;13.07;2.55;;;;;;;;;;5132993;27;20027;-68
2024/01/02 10:26:31;;;;;;;3.20;2.00;;;;;;;;;;5132976;27;20030;-69
2024/01/02 10:29:04;;;;;;;8.27;2.50;;;;;;;;;;5132837;28;20027;-68
2024/01/02 10:31:42;;;;;;;11.52;3.13;;;;;;;;;;5133017;28;20058;-68
2024/01/02 10:34:32;;;;;;;9.85;3.10;;;;;;;;;;5133036;27;20019;-68
2024/01/02 10:37:06;;;;;;;10.30;3.20;;;;;;;;;;5133197;28;20466;-68
2024/01/02 10:39:43;;;;;;;8.45;2.92;;;;;;;;;;5132792;28;20036;-68
2024/01/02 10:42:09;;;;;;;6.88;2.38;;;;;;;;;;5132965;28;20358;-68
2024/01/02 10:44:43;;;;;;;8.63;2.88;;;;;;;;;;5132755;27;20019;-68
2024/01/02 10:47:59;;;;;;;9.27;2.92;;;;;;;;;;5132667;28;20035;-68
2024/01/02 10:50:32;;;;;;;7.90;2.85;;;;;;;;;;5125998;28;20493;-68
2024/01/02 10:53:17;;;;;;;10.23;2.92;;;;;;;;;;5133026;27;20393;-68
2024/01/02 10:55:50;;;;;;;4.95;2.35;;;;;;;;;;5029041;28;20068;-68
2024/01/02 10:58:29;;;;;;;7.32;2.80;;;;;;;;;;5032301;28;20037;-68
2024/01/02 11:01:00;;;;;;;9.77;3.72;;;;;;;;;;5027228;28;20049;-68
2024/01/02 11:03:28;;;;;;;9.00;3.78;;;;;;;;;;5021006;28;20029;-68
2024/01/02 11:06:19;;;;;;;13.43;4.43;;;;;;;;;;5021811;28;20104;-68
2024/01/02 11:09:06;;;;;;;9.43;3.38;;;;;;;;;;4974483;28;20070;-68
2024/01/02 11:11:36;;;;;;;5.00;3.13;;;;;;;;;;4990084;28;20061;-68
2024/01/02 11:14:02;;;;;;;5.20;2.20;;;;;;;;;;4993533;28;20135;-69
2024/01/02 11:16:29;;;;;;;10.75;2.90;;;;;;;;;;4993833;28;20046;-68
2024/01/02 11:18:58;;;;;;;6.50;2.85;;;;;;;;;;4993608;28;20096;-68
2024/01/02 11:21:44;;;;;;;7.32;3.05;;;;;;;;;;4993372;28;20042;-68
2024/01/02 11:24:12;;;;;;;5.53;2.42;;;;;;;;;;4993601;28;20077;-68
2024/01/02 11:26:44;;;;;;;6.45;2.65;;;;;;;;;;4993176;28;20104;-68
2024/01/02 11:29:24;;;;;;;9.95;3.47;;;;;;;;;;4993253;28;20023;-68
2024/01/02 11:31:52;;;;;;;12.60;3.92;;;;;;;;;;5000669;28;20042;-68
2024/01/02 11:34:57;;;;;;;5.25;3.67;;;;;;;;;;5072885;28;20593;-68
2024/01/02 11:37:37;;;;;;;14.75;6.30;;;;;;;;;;5072923;28;20036;-68
2024/01/02 11:40:22;;;;;;;6.13;3.05;;;;;;;;;;5072093;28;20103;-68
2024/01/02 11:42:51;;;;;;;10.43;4.50;;;;;;;;;;5072652;28;20052;-69
2024/01/02 11:45:24;;;;;;;11.45;4.25;;;;;;;;;;5096672;27;20478;-68
2024/01/02 11:48:23;;;;;;;11.93;4.97;;;;;;;;;;5135511;27;20033;-69
2024/01/02 11:51:01;;;;;;;13.50;6.10;;;;;;;;;;5131039;27;20027;-68
2024/01/02 11:54:01;;;;;;;19.02;7.88;;;;;;;;;;5135939;27;20430;-68
2024/01/02 11:56:31;;;;;;;14.23;6.47;;;;;;;;;;5113034;27;20047;-68
2024/01/02 11:59:06;;;;;;;;;;;;;;;;;;5135782;27;20455;-68
2024/01/02 12:01:48;;;;;;;10.48;4.53;;;;;;;;;;5135585;27;19919;-68
2024/01/02 12:04:27;;;;;;;6.60;3.20;;;;;;;;;;5135520;27;20486;-68
2024/01/02 12:07:01;;;;;;;16.25;5.68;;;;;;;;;;5119021;27;20118;-68
2024/01/02 12:09:30;;;;;;;13.35;4.13;;;;;;;;;;5114734;28;20088;-68
2024/01/02 12:12:11;;;;;;;11.70;5.28;;;;;;;;;;5114085;28;20034;-68
2024/01/02 12:14:48;;;;;;;9.63;3.28;;;;;;;;;;5115267;27;20389;-68
2024/01/02 12:17:18;;;;;;;8.98;3.33;;;;;;;;;;5135245;27;20075;-68
2024/01/02 12:19:47;;;;;;;6.05;3.15;;;;;;;;;;5135173;27;20072;-68
2024/01/02 12:22:12;;;;;;;5.72;2.83;;;;;;;;;;5134996;27;20031;-68
2024/01/02 12:24:38;;;;;;;10.85;3.83;;;;;;;;;;5135226;27;20119;-69
2024/01/02 12:27:06;;;;;;;7.10;3.50;;;;;;;;;;5134593;27;20573;-68
2024/01/02 12:29:48;;;;;;;8.38;2.88;;;;;;;;;;5135107;27;20039;-68
2024/01/02 12:32:39;;;;;;;9.23;3.38;;;;;;;;;;5134783;27;20105;-68
2024/01/02 12:35:19;;;;;;;7.45;3.50;;;;;;;;;;5134474;27;20042;-68
2024/01/02 12:37:57;;;;;;;9.50;3.65;;;;;;;;;;5114153;28;20026;-68
2024/01/02 12:40:29;;;;;;;5.25;3.20;;;;;;;;;;5115970;27;20028;-68
2024/01/02 12:42:58;;;;;;;12.32;3.85;;;;;;;;;;5135027;27;20035;-68
2024/01/02 12:45:30;;;;;;;11.18;4.15;;;;;;;;;;5134503;27;20359;-69
2024/01/02 12:47:59;;;;;;;17.35;5.72;;;;;;;;;;5113920;28;20059;-68
2024/01/02 12:50:27;;;;;;;22.83;5.75;;;;;;;;;;5115212;27;20101;-68
2024/01/02 12:53:03;;;;;;;13.80;4.18;;;;;;;;;;5134499;27;20023;-68
2024/01/02 12:55:33;;;;;;;19.92;5.80;;;;;;;;;;5115536;27;20043;-68
2024/01/02 12:57:59;;;;;;;7.47;3.03;;;;;;;;;;5134372;27;20060;-68
2024/01/02 13:00:24;;;;;;;10.35;4.15;;;;;;;;;;5134174;27;20113;-69
2024/01/02 13:02:51;;;;;;;12.15;4.65;;;;;;;;;;5134404;27;20031;-68
2024/01/02 13:05:16;;;;;;;6.95;3.55;;;;;;;;;;5134353;27;20094;-69
2024/01/02 13:07:42;;;;;;;10.55;4.50;;;;;;;;;;5113950;27;20142;-68
2024/01/02 13:10:08;;;;;;;9.93;4.25;;;;;;;;;;5113463;28;20099;-68
2024/01/02 13:12:35;;;;;;;6.75;3.10;;;;;;;;;;5115199;27;20103;-69
2024/01/02 13:15:06;;;;;;;8.50;4.22;;;;;;;;;;5134293;27;20076;-68
2024/01/02 13:17:32;;;;;;;11.77;5.57;;;;;;;;;;5134161;27;20126;-68
2024/01/02 13:19:59;;;;;;;11.60;5.55;;;;;;;;;;5133899;27;20035;-69
2024/01/02 13:22:26;;;;;;;8.15;4.43;;;;;;;;;;5115205;27;20104;-68
2024/01/02 13:24:53;;;;;;;7.55;3.53;;;;;;;;;;5133732;27;20156;-68
2024/01/02 13:27:28;;;;;;;2.83;2.25;;;;;;;;;;5133527;27;20030;-68
2024/01/02 13:29:55;;;;;;;11.57;4.15;;;;;;;;;;5133896;27;20035;-68
2024/01/02 13:32:21;;;;;;;12.13;4.72;;;;;;;;;;5133435;27;20049;-68
2024/01/02 13:34:47;;;;;;;11.32;3.92;;;;;;;;;;5133598;27;20106;-68
2024/01/02 13:37:22;;;;;;;9.75;4.60;;;;;;;;;;5133409;27;20112;-68
2024/01/02 13:39:48;;;;;;;5.50;3.42;;;;;;;;;;5133708;27;20031;-68
2024/01/02 13:42:26;;;;;;;6.50;3.42;;;;;;;;;;5133862;27;20424;-69
2024/01/02 13:44:51;;;;;;;10.82;5.13;;;;;;;;;;5133603;27;20063;-68
2024/01/02 13:47:18;;;;;;;8.32;3.38;;;;;;;;;;5133293;27;20065;-68
2024/01/02 13:49:51;;;;;;;5.97;3.13;;;;;;;;;;5129372;27;20063;-68
2024/01/02 13:52:27;;;;;;;10.00;4.45;;;;;;;;;;5126792;27;20027;-69
2024/01/02 13:54:53;;;;;;;6.90;3.55;;;;;;;;;;5133351;27;20075;-68
2024/01/02 13:57:32;;;;;;;10.68;4.20;;;;;;;;;;5132956;27;20027;-68
2024/01/02 14:00:09;;;;;;;8.07;4.43;;;;;;;;;;5133122;27;20023;-68
2024/01/02 14:02:35;;;;;;;11.48;5.50;;;;;;;;;;5114880;27;20403;-69
2024/01/02 14:05:03;;;;;;;5.57;3.70;;;;;;;;;;5132970;27;20019;-68
2024/01/02 14:07:29;;;;;;;17.05;5.75;;;;;;;;;;5118564;27;20028;-69
2024/01/02 14:09:58;;;;;;;6.75;3.83;;;;;;;;;;5112623;28;20027;-68
2024/01/02 14:12:23;;;;;;;9.63;4.35;;;;;;;;;;5112673;28;20057;-68
2024/01/02 14:14:59;;;;;;;7.15;4.40;;;;;;;;;;5112700;28;20027;-68
2024/01/02 14:17:29;;;;;;;11.43;6.50;;;;;;;;;;5125999;28;20027;-69
2024/01/02 14:19:56;;;;;;;;;;;;;;;;;;5133328;28;20034;-68
2024/01/02 14:22:33;;;;;;;9.70;4.18;;;;;;;;;;5132924;28;19915;-68
2024/01/02 14:25:22;;;;;;;11.63;6.40;;;;;;;;;;5133094;28;20403;-68
2024/01/02 14:28:21;;;;;;;14.30;6.00;;;;;;;;;;5132820;27;20031;-68
2024/01/02 14:30:56;;;;;;;12.90;6.00;;;;;;;;;;5132988;28;20482;-68
2024/01/02 14:33:24;;;;;;;16.15;5.82;;;;;;;;;;5107380;28;20088;-68
2024/01/02 14:36:15;;;;;;;11.70;5.60;;;;;;;;;;5132206;27;20098;-68
2024/01/02 14:38:47;;;;;;;13.52;6.00;;;;;;;;;;5134518;27;20029;-68
2024/01/02 14:41:33;;;;;;;12.25;6.90;;;;;;;;;;5136214;27;20031;-68
2024/01/02 14:44:11;;;;;;;11.32;5.75;;;;;;;;;;5133720;27;20119;-68
2024/01/02 14:47:06;;;;;;;14.77;7.18;;;;;;;;;;5117814;27;20347;-68
2024/01/02 14:49:34;;;;;;;11.50;5.97;;;;;;;;;;5117247;27;20431;-68
2024/01/02 14:52:00;;;;;;;15.98;6.93;;;;;;;;;;5116772;27;20477;-68